sensor_id;sensor_type;location;lat;lon;timestamp;pressure;altitude;pressure_sealevel;temperature;humidity
73306;BME280;61530;51.158;0.880;2022-10-03T00:00:08;1023.51;;;11.625;46.6378
73306;BME280;61530;51.158;0.880;2022-10-03T00:01:22;1023.5;;;11.625;46.3449
73306;BME280;61530;51.158;0.880;2022-10-03T00:02:19;1023.55;;;11.625;45.9977
73306;BME280;61530;51.158;0.880;2022-10-03T00:03:27;1023.56;;;11.625;46.4666
73306;BME280;61530;51.158;0.880;2022-10-03T00:04:31;1023.62;;;11.625;46.2904
73306;BME280;61530;51.158;0.880;2022-10-03T00:05:37;1023.65;;;11.6875;46.3311
73306;BME280;61530;51.158;0.880;2022-10-03T00:06:41;1023.68;;;11.625;46.542
73306;BME280;61530;51.158;0.880;2022-10-03T00:07:59;1023.69;;;11.6875;46.3134
73306;BME280;61530;51.158;0.880;2022-10-03T00:08:55;1023.69;;;11.625;46.4455
73306;BME280;61530;51.158;0.880;2022-10-03T00:09:54;1023.68;;;11.625;46.9556
73306;BME280;61530;51.158;0.880;2022-10-03T00:10:51;1023.66;;;11.625;47.46
73306;BME280;61530;51.158;0.880;2022-10-03T00:12:02;1023.67;;;11.5625;46.4449
73306;BME280;61530;51.158;0.880;2022-10-03T00:13:04;1023.64;;;11.625;46.5694
73306;BME280;61530;51.158;0.880;2022-10-03T00:14:01;1023.62;;;11.625;46.3213
73306;BME280;61530;51.158;0.880;2022-10-03T00:15:05;1023.63;;;11.6875;46.0524
73306;BME280;61530;51.158;0.880;2022-10-03T00:16:14;1023.62;;;11.6875;45.9729
73306;BME280;61530;51.158;0.880;2022-10-03T00:17:13;1023.6;;;11.5625;46.7841
73306;BME280;61530;51.158;0.880;2022-10-03T00:18:22;1023.59;;;11.6875;46.3369
73306;BME280;61530;51.158;0.880;2022-10-03T00:19:27;1023.62;;;11.6875;46.1776
73306;BME280;61530;51.158;0.880;2022-10-03T00:20:37;1023.63;;;11.6875;46.6093
73306;BME280;61530;51.158;0.880;2022-10-03T00:21:37;1023.63;;;11.625;46.4783
73306;BME280;61530;51.158;0.880;2022-10-03T00:22:38;1023.65;;;11.625;45.5583
73306;BME280;61530;51.158;0.880;2022-10-03T00:23:39;1023.63;;;11.6875;45.587
73306;BME280;61530;51.158;0.880;2022-10-03T00:24:46;1023.61;;;11.625;46.0216
73306;BME280;61530;51.158;0.880;2022-10-03T00:25:48;1023.6;;;11.625;46.107
73306;BME280;61530;51.158;0.880;2022-10-03T00:26:50;1023.65;;;11.5625;46.557
73306;BME280;61530;51.158;0.880;2022-10-03T00:28:11;1023.63;;;11.5;46.0786
73306;BME280;61530;51.158;0.880;2022-10-03T00:29:07;1023.68;;;11.4375;46.9581
73306;BME280;61530;51.158;0.880;2022-10-03T00:30:12;1023.7;;;11.375;45.4657
73306;BME280;61530;51.158;0.880;2022-10-03T00:31:12;1023.74;;;11.4375;45.8132
73306;BME280;61530;51.158;0.880;2022-10-03T00:32:22;1023.74;;;11.5;46.4701
73306;BME280;61530;51.158;0.880;2022-10-03T00:33:20;1023.74;;;11.5;45.8473
73306;BME280;61530;51.158;0.880;2022-10-03T00:34:23;1023.73;;;11.375;45.8329
73306;BME280;61530;51.158;0.880;2022-10-03T00:35:28;1023.73;;;11.4375;45.4697
73306;BME280;61530;51.158;0.880;2022-10-03T00:36:32;1023.7;;;11.4375;46.0119
73306;BME280;61530;51.158;0.880;2022-10-03T00:37:31;1023.71;;;11.5;46.5105
73306;BME280;61530;51.158;0.880;2022-10-03T00:38:46;1023.7;;;11.3125;46.1362
73306;BME280;61530;51.158;0.880;2022-10-03T00:39:44;1023.73;;;11.1875;45.854
73306;BME280;61530;51.158;0.880;2022-10-03T00:44:30;1023.78;;;11.4375;45.986
73306;BME280;61530;51.158;0.880;2022-10-03T00:45:36;1023.83;;;11.5;45.7285
73306;BME280;61530;51.158;0.880;2022-10-03T00:47:05;1023.85;;;11.5625;46.5977
73306;BME280;61530;51.158;0.880;2022-10-03T00:47:31;1023.83;;;11.5;45.6254
73306;BME280;61530;51.158;0.880;2022-10-03T00:50:45;1023.84;;;11.5625;45.584
73306;BME280;61530;51.158;0.880;2022-10-03T00:51:03;1023.85;;;11.5;46.2424
73306;BME280;61530;51.158;0.880;2022-10-03T00:52:13;1023.94;;;11.5625;46.5463
73306;BME280;61530;51.158;0.880;2022-10-03T00:53:15;1023.96;;;11.625;45.6486
73306;BME280;61530;51.158;0.880;2022-10-03T00:54:20;1023.94;;;11.625;46.4613
73306;BME280;61530;51.158;0.880;2022-10-03T00:55:20;1023.96;;;11.6875;46.5749
73306;BME280;61530;51.158;0.880;2022-10-03T00:56:32;1023.94;;;11.625;46.7235
73306;BME280;61530;51.158;0.880;2022-10-03T00:57:35;1023.97;;;11.625;46.6684
73306;BME280;61530;51.158;0.880;2022-10-03T00:58:43;1023.99;;;11.625;46.4072
73306;BME280;61530;51.158;0.880;2022-10-03T00:59:37;1023.98;;;11.75;45.9031
73306;BME280;61530;51.158;0.880;2022-10-03T01:00:33;1024.04;;;11.6875;46.3908
73306;BME280;61530;51.158;0.880;2022-10-03T01:01:44;1024.06;;;11.75;45.8364
73306;BME280;61530;51.158;0.880;2022-10-03T01:02:47;1024.07;;;11.8125;46.2507
73306;BME280;61530;51.158;0.880;2022-10-03T01:03:48;1024.04;;;11.75;45.5176
73306;BME280;61530;51.158;0.880;2022-10-03T01:04:57;1024.04;;;11.6875;46.3987
73306;BME280;61530;51.158;0.880;2022-10-03T01:06:02;1024.0;;;11.6875;46.1375
73306;BME280;61530;51.158;0.880;2022-10-03T01:07:05;1024.0;;;11.625;45.9765
73306;BME280;61530;51.158;0.880;2022-10-03T01:08:32;1023.96;;;11.625;45.2931
73306;BME280;61530;51.158;0.880;2022-10-03T01:09:12;1023.98;;;11.5625;44.4523
73306;BME280;61530;51.158;0.880;2022-10-03T01:10:16;1024.0;;;11.5625;45.0593
73306;BME280;61530;51.158;0.880;2022-10-03T01:11:18;1024.01;;;11.5625;46.1074
73306;BME280;61530;51.158;0.880;2022-10-03T01:13:29;1024.02;;;11.5;45.6818
73306;BME280;61530;51.158;0.880;2022-10-03T01:13:42;1024.02;;;11.4375;45.3925
73306;BME280;61530;51.158;0.880;2022-10-03T01:14:46;1024.06;;;11.5625;46.1687
73306;BME280;61530;51.158;0.880;2022-10-03T01:15:50;1024.06;;;11.4375;46.3501
73306;BME280;61530;51.158;0.880;2022-10-03T01:16:49;1024.05;;;11.375;46.0258
73306;BME280;61530;51.158;0.880;2022-10-03T01:17:58;1024.05;;;11.4375;46.7803
73306;BME280;61530;51.158;0.880;2022-10-03T01:18:59;1024.04;;;11.3125;46.5318
73306;BME280;61530;51.158;0.880;2022-10-03T01:20:04;1024.05;;;11.3125;45.5107
73306;BME280;61530;51.158;0.880;2022-10-03T01:21:07;1024.04;;;11.375;45.5559
73306;BME280;61530;51.158;0.880;2022-10-03T01:22:23;1024.07;;;11.375;45.4652
73306;BME280;61530;51.158;0.880;2022-10-03T01:23:31;1024.1;;;11.25;45.6795
73306;BME280;61530;51.158;0.880;2022-10-03T01:24:33;1024.15;;;11.375;46.8998
73306;BME280;61530;51.158;0.880;2022-10-03T01:25:36;1024.17;;;11.3125;45.8671
73306;BME280;61530;51.158;0.880;2022-10-03T01:26:50;1024.18;;;11.5;45.2585
73306;BME280;61530;51.158;0.880;2022-10-03T01:27:36;1024.22;;;11.4375;46.0984
73306;BME280;61530;51.158;0.880;2022-10-03T01:28:42;1024.22;;;11.375;45.5999
73306;BME280;61530;51.158;0.880;2022-10-03T01:29:44;1024.16;;;11.4375;46.1858
73306;BME280;61530;51.158;0.880;2022-10-03T01:30:46;1024.16;;;11.5;46.4467
73306;BME280;61530;51.158;0.880;2022-10-03T01:31:48;1024.15;;;11.4375;45.4434
73306;BME280;61530;51.158;0.880;2022-10-03T01:32:47;1024.14;;;11.5;46.0445
73306;BME280;61530;51.158;0.880;2022-10-03T01:33:53;1024.11;;;11.4375;46.3904
73306;BME280;61530;51.158;0.880;2022-10-03T01:34:57;1024.07;;;11.5;45.057
73306;BME280;61530;51.158;0.880;2022-10-03T01:35:58;1024.06;;;11.5625;44.8979
73306;BME280;61530;51.158;0.880;2022-10-03T01:37:05;1024.04;;;11.5;44.855
73306;BME280;61530;51.158;0.880;2022-10-03T01:38:11;1024.06;;;11.4375;45.2115
73306;BME280;61530;51.158;0.880;2022-10-03T01:39:12;1024.07;;;11.4375;46.3336
73306;BME280;61530;51.158;0.880;2022-10-03T01:40:18;1024.08;;;11.4375;46.0964
73306;BME280;61530;51.158;0.880;2022-10-03T01:41:23;1024.09;;;11.5;45.4597
73306;BME280;61530;51.158;0.880;2022-10-03T01:42:19;1024.12;;;11.4375;46.1427
73306;BME280;61530;51.158;0.880;2022-10-03T01:43:18;1024.13;;;11.375;46.6349
73306;BME280;61530;51.158;0.880;2022-10-03T01:44:21;1024.08;;;11.4375;46.8757
73306;BME280;61530;51.158;0.880;2022-10-03T01:45:25;1024.09;;;11.375;47.0835
73306;BME280;61530;51.158;0.880;2022-10-03T01:46:24;1024.11;;;11.4375;45.5557
73306;BME280;61530;51.158;0.880;2022-10-03T01:47:33;1024.13;;;11.4375;46.358
73306;BME280;61530;51.158;0.880;2022-10-03T01:48:34;1024.12;;;11.375;46.4638
73306;BME280;61530;51.158;0.880;2022-10-03T01:49:40;1024.08;;;11.4375;46.7745
73306;BME280;61530;51.158;0.880;2022-10-03T01:50:37;1024.07;;;11.4375;46.4918
73306;BME280;61530;51.158;0.880;2022-10-03T01:51:44;1024.03;;;11.4375;46.605
73306;BME280;61530;51.158;0.880;2022-10-03T01:52:48;1024.05;;;11.4375;46.3679
73306;BME280;61530;51.158;0.880;2022-10-03T01:53:59;1024.05;;;11.4375;46.8045
73306;BME280;61530;51.158;0.880;2022-10-03T01:55:00;1024.08;;;11.5;46.0632
73306;BME280;61530;51.158;0.880;2022-10-03T01:56:05;1024.1;;;11.375;47.3083
73306;BME280;61530;51.158;0.880;2022-10-03T01:57:01;1024.12;;;11.3125;45.3683
73306;BME280;61530;51.158;0.880;2022-10-03T01:58:10;1024.12;;;11.3125;46.3678
73306;BME280;61530;51.158;0.880;2022-10-03T01:59:09;1024.11;;;11.1875;45.2924
73306;BME280;61530;51.158;0.880;2022-10-03T02:00:12;1024.07;;;11.1875;45.4685
73306;BME280;61530;51.158;0.880;2022-10-03T02:01:14;1024.06;;;11.125;45.9049
73306;BME280;61530;51.158;0.880;2022-10-03T02:02:27;1024.06;;;11.0;46.6061
73306;BME280;61530;51.158;0.880;2022-10-03T02:03:22;1024.05;;;10.9375;46.7346
73306;BME280;61530;51.158;0.880;2022-10-03T02:04:31;1024.07;;;11.0625;47.1308
73306;BME280;61530;51.158;0.880;2022-10-03T02:05:33;1024.05;;;11.0625;46.3962
73306;BME280;61530;51.158;0.880;2022-10-03T02:06:41;1024.07;;;11.1875;46.5826
73306;BME280;61530;51.158;0.880;2022-10-03T02:07:41;1024.11;;;11.1875;46.2483
73306;BME280;61530;51.158;0.880;2022-10-03T02:08:50;1024.15;;;11.3125;46.3557
73306;BME280;61530;51.158;0.880;2022-10-03T02:09:50;1024.15;;;11.1875;47.2164
73306;BME280;61530;51.158;0.880;2022-10-03T02:10:51;1024.14;;;11.1875;46.407
73306;BME280;61530;51.158;0.880;2022-10-03T02:11:59;1024.15;;;11.25;46.0054
73306;BME280;61530;51.158;0.880;2022-10-03T02:13:00;1024.12;;;11.25;45.9491
73306;BME280;61530;51.158;0.880;2022-10-03T02:14:11;1024.1;;;11.1875;46.3342
73306;BME280;61530;51.158;0.880;2022-10-03T02:15:06;1024.06;;;11.25;46.2105
73306;BME280;61530;51.158;0.880;2022-10-03T02:16:06;1024.02;;;11.25;46.3114
73306;BME280;61530;51.158;0.880;2022-10-03T02:17:03;1023.98;;;11.1875;46.3178
73306;BME280;61530;51.158;0.880;2022-10-03T02:18:12;1023.97;;;11.125;46.5607
73306;BME280;61530;51.158;0.880;2022-10-03T02:19:12;1023.95;;;11.125;46.1812
73306;BME280;61530;51.158;0.880;2022-10-03T02:20:22;1023.94;;;11.1875;45.6042
73306;BME280;61530;51.158;0.880;2022-10-03T02:21:19;1023.97;;;11.1875;46.1763
73306;BME280;61530;51.158;0.880;2022-10-03T02:22:30;1024.02;;;11.25;45.9599
73306;BME280;61530;51.158;0.880;2022-10-03T02:23:37;1024.05;;;11.25;46.3402
73306;BME280;61530;51.158;0.880;2022-10-03T02:24:44;1024.06;;;11.25;46.0945
73306;BME280;61530;51.158;0.880;2022-10-03T02:25:48;1024.07;;;11.25;46.5349
73306;BME280;61530;51.158;0.880;2022-10-03T02:26:55;1024.06;;;11.375;46.67
73306;BME280;61530;51.158;0.880;2022-10-03T02:28:55;1024.02;;;11.3125;46.9379
73306;BME280;61530;51.158;0.880;2022-10-03T02:29:49;1024.04;;;11.25;46.8934
73306;BME280;61530;51.158;0.880;2022-10-03T02:30:19;1023.99;;;11.3125;45.63
73306;BME280;61530;51.158;0.880;2022-10-03T02:31:22;1023.97;;;11.3125;46.8549
73306;BME280;61530;51.158;0.880;2022-10-03T02:32:21;1023.98;;;11.3125;47.1909
73306;BME280;61530;51.158;0.880;2022-10-03T02:33:38;1024.02;;;11.3125;46.6144
73306;BME280;61530;51.158;0.880;2022-10-03T02:34:31;1024.0;;;11.375;46.3998
73306;BME280;61530;51.158;0.880;2022-10-03T02:35:43;1024.02;;;11.3125;46.877
73306;BME280;61530;51.158;0.880;2022-10-03T02:38:40;1023.99;;;11.25;47.8018
73306;BME280;61530;51.158;0.880;2022-10-03T02:39:28;1024.02;;;11.25;46.2194
73306;BME280;61530;51.158;0.880;2022-10-03T02:40:31;1023.99;;;11.25;46.2655
73306;BME280;61530;51.158;0.880;2022-10-03T02:41:57;1023.98;;;11.1875;46.0713
73306;BME280;61530;51.158;0.880;2022-10-03T02:43:06;1023.98;;;11.1875;45.4654
73306;BME280;61530;51.158;0.880;2022-10-03T02:44:48;1024.0;;;11.25;45.0633
73306;BME280;61530;51.158;0.880;2022-10-03T02:45:34;1023.99;;;11.25;45.4929
73306;BME280;61530;51.158;0.880;2022-10-03T02:46:08;1024.01;;;11.25;46.236
73306;BME280;61530;51.158;0.880;2022-10-03T02:47:19;1024.01;;;11.3125;45.9206
73306;BME280;61530;51.158;0.880;2022-10-03T02:48:31;1024.04;;;11.3125;45.9545
73306;BME280;61530;51.158;0.880;2022-10-03T02:49:39;1024.04;;;11.3125;46.1405
73306;BME280;61530;51.158;0.880;2022-10-03T02:50:28;1024.04;;;11.25;45.8499
73306;BME280;61530;51.158;0.880;2022-10-03T02:54:58;1024.02;;;11.0;45.6756
73306;BME280;61530;51.158;0.880;2022-10-03T02:55:30;1023.97;;;11.1875;45.2898
73306;BME280;61530;51.158;0.880;2022-10-03T02:58:43;1023.92;;;11.125;45.1168
73306;BME280;61530;51.158;0.880;2022-10-03T02:59:35;1023.94;;;11.0;46.1489
73306;BME280;61530;51.158;0.880;2022-10-03T03:00:17;1024.0;;;11.125;45.2329
73306;BME280;61530;51.158;0.880;2022-10-03T03:03:30;1024.06;;;11.0;45.6748
73306;BME280;61530;51.158;0.880;2022-10-03T03:04:40;1024.05;;;11.125;46.2056
73306;BME280;61530;51.158;0.880;2022-10-03T03:05:27;1024.08;;;11.125;45.6299
73306;BME280;61530;51.158;0.880;2022-10-03T03:07:01;1024.06;;;11.0625;45.4502
73306;BME280;61530;51.158;0.880;2022-10-03T03:07:49;1024.1;;;11.0;45.5578
73306;BME280;61530;51.158;0.880;2022-10-03T03:09:52;1024.07;;;11.0625;45.2664
73306;BME280;61530;51.158;0.880;2022-10-03T03:11:22;1024.07;;;10.9375;45.4034
73306;BME280;61530;51.158;0.880;2022-10-03T03:11:53;1024.07;;;10.9375;45.4823
73306;BME280;61530;51.158;0.880;2022-10-03T03:12:54;1024.09;;;11.0625;45.8652
73306;BME280;61530;51.158;0.880;2022-10-03T03:14:03;1024.07;;;11.125;46.2722
73306;BME280;61530;51.158;0.880;2022-10-03T03:15:04;1024.07;;;11.1875;46.2662
73306;BME280;61530;51.158;0.880;2022-10-03T03:16:47;1024.08;;;11.125;46.9739
73306;BME280;61530;51.158;0.880;2022-10-03T03:17:06;1024.08;;;11.0;47.3305
73306;BME280;61530;51.158;0.880;2022-10-03T03:18:03;1024.07;;;11.125;46.3037
73306;BME280;61530;51.158;0.880;2022-10-03T03:19:12;1024.02;;;11.125;46.0522
73306;BME280;61530;51.158;0.880;2022-10-03T03:20:16;1024.02;;;11.125;45.6162
73306;BME280;61530;51.158;0.880;2022-10-03T03:21:19;1023.98;;;11.0;46.2783
73306;BME280;61530;51.158;0.880;2022-10-03T03:22:30;1023.98;;;11.0625;46.1604
73306;BME280;61530;51.158;0.880;2022-10-03T03:23:44;1023.97;;;11.0;45.4463
73306;BME280;61530;51.158;0.880;2022-10-03T03:24:40;1023.99;;;11.0;45.0407
73306;BME280;61530;51.158;0.880;2022-10-03T03:25:42;1023.96;;;11.0;45.6587
73306;BME280;61530;51.158;0.880;2022-10-03T03:26:44;1023.95;;;10.875;46.3028
73306;BME280;61530;51.158;0.880;2022-10-03T03:27:46;1023.91;;;10.9375;45.9277
73306;BME280;61530;51.158;0.880;2022-10-03T03:28:44;1023.89;;;11.0;46.0521
73306;BME280;61530;51.158;0.880;2022-10-03T03:29:49;1023.9;;;10.9375;46.3124
73306;BME280;61530;51.158;0.880;2022-10-03T03:30:50;1023.93;;;10.9375;45.7751
73306;BME280;61530;51.158;0.880;2022-10-03T03:31:56;1023.92;;;10.9375;46.5098
73306;BME280;61530;51.158;0.880;2022-10-03T03:33:04;1023.92;;;10.9375;45.9713
73306;BME280;61530;51.158;0.880;2022-10-03T03:34:08;1023.93;;;10.9375;44.6008
73306;BME280;61530;51.158;0.880;2022-10-03T03:35:09;1023.93;;;10.9375;46.1672
73306;BME280;61530;51.158;0.880;2022-10-03T03:36:15;1023.96;;;10.9375;46.5626
73306;BME280;61530;51.158;0.880;2022-10-03T03:37:12;1023.97;;;11.0;45.41
73306;BME280;61530;51.158;0.880;2022-10-03T03:38:18;1023.98;;;11.0;45.548
73306;BME280;61530;51.158;0.880;2022-10-03T03:39:22;1023.99;;;11.0;45.7238
73306;BME280;61530;51.158;0.880;2022-10-03T03:40:23;1023.99;;;11.0;45.4528
73306;BME280;61530;51.158;0.880;2022-10-03T03:41:35;1024.01;;;11.125;46.3582
73306;BME280;61530;51.158;0.880;2022-10-03T03:42:35;1023.99;;;11.0625;46.859
73306;BME280;61530;51.158;0.880;2022-10-03T03:43:32;1024.03;;;11.125;46.6668
73306;BME280;61530;51.158;0.880;2022-10-03T03:44:46;1024.0;;;11.1875;47.043
73306;BME280;61530;51.158;0.880;2022-10-03T03:45:43;1024.0;;;11.1875;46.4245
73306;BME280;61530;51.158;0.880;2022-10-03T03:46:44;1024.01;;;11.25;46.4372
73306;BME280;61530;51.158;0.880;2022-10-03T03:47:58;1024.01;;;11.3125;45.151
73306;BME280;61530;51.158;0.880;2022-10-03T03:48:59;1023.99;;;11.3125;45.8696
73306;BME280;61530;51.158;0.880;2022-10-03T03:50:03;1023.98;;;11.375;45.6843
73306;BME280;61530;51.158;0.880;2022-10-03T03:50:52;1023.95;;;11.375;45.9892
73306;BME280;61530;51.158;0.880;2022-10-03T03:52:00;1023.94;;;11.25;46.4522
73306;BME280;61530;51.158;0.880;2022-10-03T03:53:11;1023.94;;;11.0625;45.6736
73306;BME280;61530;51.158;0.880;2022-10-03T03:54:20;1023.95;;;10.9375;46.1025
73306;BME280;61530;51.158;0.880;2022-10-03T03:55:22;1023.93;;;11.0;46.0224
73306;BME280;61530;51.158;0.880;2022-10-03T03:56:24;1023.94;;;10.9375;45.7263
73306;BME280;61530;51.158;0.880;2022-10-03T03:57:27;1023.96;;;11.0;46.6534
73306;BME280;61530;51.158;0.880;2022-10-03T03:58:25;1023.94;;;11.0625;46.3824
73306;BME280;61530;51.158;0.880;2022-10-03T03:59:34;1023.92;;;11.0;46.7551
73306;BME280;61530;51.158;0.880;2022-10-03T04:00:40;1023.91;;;11.0;45.5824
73306;BME280;61530;51.158;0.880;2022-10-03T04:01:40;1023.91;;;10.9375;46.745
73306;BME280;61530;51.158;0.880;2022-10-03T04:02:49;1023.86;;;10.9375;44.7732
73306;BME280;61530;51.158;0.880;2022-10-03T04:03:52;1023.88;;;10.9375;45.3289
73306;BME280;61530;51.158;0.880;2022-10-03T04:04:57;1023.88;;;11.0;46.399
73306;BME280;61530;51.158;0.880;2022-10-03T04:06:06;1023.85;;;10.9375;46.6864
73306;BME280;61530;51.158;0.880;2022-10-03T04:07:07;1023.87;;;10.9375;46.8241
73306;BME280;61530;51.158;0.880;2022-10-03T04:08:16;1023.85;;;11.0;46.8782
73306;BME280;61530;51.158;0.880;2022-10-03T04:09:19;1023.86;;;10.9375;46.3358
73306;BME280;61530;51.158;0.880;2022-10-03T04:10:22;1023.88;;;10.8125;46.8653
73306;BME280;61530;51.158;0.880;2022-10-03T04:11:26;1023.88;;;10.875;46.2582
73306;BME280;61530;51.158;0.880;2022-10-03T04:12:38;1023.88;;;10.875;46.9275
73306;BME280;61530;51.158;0.880;2022-10-03T04:13:38;1023.86;;;10.9375;45.0193
73306;BME280;61530;51.158;0.880;2022-10-03T04:14:44;1023.8;;;10.875;46.4848
73306;BME280;61530;51.158;0.880;2022-10-03T04:17:50;1023.79;;;10.875;45.6463
73306;BME280;61530;51.158;0.880;2022-10-03T04:18:24;1023.74;;;10.875;46.1336
73306;BME280;61530;51.158;0.880;2022-10-03T04:19:21;1023.79;;;10.875;45.7616
73306;BME280;61530;51.158;0.880;2022-10-03T04:20:21;1023.77;;;10.875;45.8839
73306;BME280;61530;51.158;0.880;2022-10-03T04:21:38;1023.81;;;11.0;46.1573
73306;BME280;61530;51.158;0.880;2022-10-03T04:22:28;1023.82;;;10.9375;45.7648
73306;BME280;61530;51.158;0.880;2022-10-03T04:23:32;1023.84;;;11.0625;46.4316
73306;BME280;61530;51.158;0.880;2022-10-03T04:24:39;1023.79;;;11.0;46.273
73306;BME280;61530;51.158;0.880;2022-10-03T04:25:37;1023.8;;;11.0;46.8433
73306;BME280;61530;51.158;0.880;2022-10-03T04:26:42;1023.77;;;11.0;45.1283
73306;BME280;61530;51.158;0.880;2022-10-03T04:27:51;1023.78;;;10.9375;44.8681
73306;BME280;61530;51.158;0.880;2022-10-03T04:28:55;1023.8;;;10.875;45.4254
73306;BME280;61530;51.158;0.880;2022-10-03T04:29:59;1023.8;;;10.875;45.8382
73306;BME280;61530;51.158;0.880;2022-10-03T04:30:58;1023.77;;;10.875;45.4635
73306;BME280;61530;51.158;0.880;2022-10-03T04:32:05;1023.76;;;10.9375;45.5832
73306;BME280;61530;51.158;0.880;2022-10-03T04:33:11;1023.77;;;11.0;45.741
73306;BME280;61530;51.158;0.880;2022-10-03T04:34:06;1023.77;;;11.0;44.1967
73306;BME280;61530;51.158;0.880;2022-10-03T04:35:34;1023.75;;;11.0;45.5083
73306;BME280;61530;51.158;0.880;2022-10-03T04:36:29;1023.77;;;11.0;45.6917
73306;BME280;61530;51.158;0.880;2022-10-03T04:37:16;1023.77;;;11.0;45.9388
73306;BME280;61530;51.158;0.880;2022-10-03T04:38:12;1023.76;;;11.0;45.9259
73306;BME280;61530;51.158;0.880;2022-10-03T04:39:16;1023.74;;;10.9375;45.6494
73306;BME280;61530;51.158;0.880;2022-10-03T04:40:25;1023.71;;;10.875;46.7321
73306;BME280;61530;51.158;0.880;2022-10-03T04:41:27;1023.69;;;10.875;46.5695
73306;BME280;61530;51.158;0.880;2022-10-03T04:42:37;1023.68;;;10.8125;45.1849
73306;BME280;61530;51.158;0.880;2022-10-03T04:43:34;1023.65;;;10.8125;45.7311
73306;BME280;61530;51.158;0.880;2022-10-03T04:44:38;1023.63;;;10.75;44.6394
73306;BME280;61530;51.158;0.880;2022-10-03T04:45:53;1023.64;;;10.75;45.1366
73306;BME280;61530;51.158;0.880;2022-10-03T04:46:44;1023.61;;;10.75;44.6498
73306;BME280;61530;51.158;0.880;2022-10-03T04:47:42;1023.62;;;10.6875;45.6053
73306;BME280;61530;51.158;0.880;2022-10-03T04:48:43;1023.62;;;10.6875;45.1987
73306;BME280;61530;51.158;0.880;2022-10-03T04:49:50;1023.63;;;10.75;45.9509
73306;BME280;61530;51.158;0.880;2022-10-03T04:50:53;1023.62;;;10.75;45.0441
73306;BME280;61530;51.158;0.880;2022-10-03T04:51:56;1023.62;;;10.8125;45.8477
73306;BME280;61530;51.158;0.880;2022-10-03T04:53:07;1023.64;;;10.75;45.2446
73306;BME280;61530;51.158;0.880;2022-10-03T04:54:00;1023.66;;;10.75;46.1663
73306;BME280;61530;51.158;0.880;2022-10-03T04:55:02;1023.65;;;10.75;46.5302
73306;BME280;61530;51.158;0.880;2022-10-03T04:56:15;1023.69;;;10.8125;47.8119
73306;BME280;61530;51.158;0.880;2022-10-03T04:57:19;1023.66;;;10.8125;47.3594
73306;BME280;61530;51.158;0.880;2022-10-03T04:58:25;1023.68;;;10.8125;47.9335
73306;BME280;61530;51.158;0.880;2022-10-03T04:59:33;1023.67;;;10.8125;48.201
73306;BME280;61530;51.158;0.880;2022-10-03T05:00:30;1023.64;;;10.875;48.4245
73306;BME280;61530;51.158;0.880;2022-10-03T05:01:31;1023.67;;;10.875;48.039
73306;BME280;61530;51.158;0.880;2022-10-03T05:02:38;1023.66;;;10.875;48.2782
73306;BME280;61530;51.158;0.880;2022-10-03T05:03:44;1023.64;;;10.875;47.431
73306;BME280;61530;51.158;0.880;2022-10-03T05:04:46;1023.63;;;10.875;46.9778
73306;BME280;61530;51.158;0.880;2022-10-03T05:05:50;1023.62;;;10.875;46.3311
73306;BME280;61530;51.158;0.880;2022-10-03T05:06:59;1023.62;;;10.875;46.7908
73306;BME280;61530;51.158;0.880;2022-10-03T05:07:55;1023.63;;;10.8125;46.8783
73306;BME280;61530;51.158;0.880;2022-10-03T05:08:56;1023.65;;;10.8125;46.777
73306;BME280;61530;51.158;0.880;2022-10-03T05:09:58;1023.71;;;10.8125;45.0886
73306;BME280;61530;51.158;0.880;2022-10-03T05:11:12;1023.76;;;10.75;45.2151
73306;BME280;61530;51.158;0.880;2022-10-03T05:12:15;1023.75;;;10.6875;46.5949
73306;BME280;61530;51.158;0.880;2022-10-03T05:13:13;1023.76;;;10.6875;45.8797
73306;BME280;61530;51.158;0.880;2022-10-03T05:14:11;1023.74;;;10.75;45.3941
73306;BME280;61530;51.158;0.880;2022-10-03T05:15:20;1023.72;;;10.6875;46.5712
73306;BME280;61530;51.158;0.880;2022-10-03T05:16:20;1023.7;;;10.75;46.2435
73306;BME280;61530;51.158;0.880;2022-10-03T05:17:25;1023.67;;;10.6875;46.2235
73306;BME280;61530;51.158;0.880;2022-10-03T05:18:27;1023.74;;;10.75;48.1489
73306;BME280;61530;51.158;0.880;2022-10-03T05:19:44;1023.76;;;10.75;47.4615
73306;BME280;61530;51.158;0.880;2022-10-03T05:20:39;1023.77;;;10.8125;48.0956
73306;BME280;61530;51.158;0.880;2022-10-03T05:21:38;1023.79;;;10.8125;47.2963
73306;BME280;61530;51.158;0.880;2022-10-03T05:22:43;1023.79;;;10.8125;47.7291
73306;BME280;61530;51.158;0.880;2022-10-03T05:23:46;1023.75;;;10.75;47.3251
73306;BME280;61530;51.158;0.880;2022-10-03T05:24:53;1023.75;;;10.8125;47.4608
73306;BME280;61530;51.158;0.880;2022-10-03T05:25:59;1023.74;;;10.8125;45.8016
73306;BME280;61530;51.158;0.880;2022-10-03T05:26:55;1023.77;;;10.75;46.5371
73306;BME280;61530;51.158;0.880;2022-10-03T05:28:08;1023.77;;;10.8125;46.3682
73306;BME280;61530;51.158;0.880;2022-10-03T05:29:02;1023.82;;;10.75;46.8093
73306;BME280;61530;51.158;0.880;2022-10-03T05:30:07;1023.76;;;10.75;46.0744
73306;BME280;61530;51.158;0.880;2022-10-03T05:31:11;1023.75;;;10.75;46.0059
73306;BME280;61530;51.158;0.880;2022-10-03T05:32:19;1023.75;;;10.75;46.8213
73306;BME280;61530;51.158;0.880;2022-10-03T05:33:23;1023.7;;;10.6875;47.2446
73306;BME280;61530;51.158;0.880;2022-10-03T05:34:31;1023.72;;;10.6875;46.7439
73306;BME280;61530;51.158;0.880;2022-10-03T05:35:34;1023.75;;;10.75;46.8402
73306;BME280;61530;51.158;0.880;2022-10-03T05:36:46;1023.77;;;10.6875;46.3659
73306;BME280;61530;51.158;0.880;2022-10-03T05:37:53;1023.78;;;10.6875;46.5538
73306;BME280;61530;51.158;0.880;2022-10-03T05:38:59;1023.79;;;10.6875;46.458
73306;BME280;61530;51.158;0.880;2022-10-03T05:39:44;1023.78;;;10.625;46.6165
73306;BME280;61530;51.158;0.880;2022-10-03T05:40:58;1023.79;;;10.625;46.0354
73306;BME280;61530;51.158;0.880;2022-10-03T05:41:51;1023.78;;;10.625;46.7305
73306;BME280;61530;51.158;0.880;2022-10-03T05:42:59;1023.74;;;10.6875;45.1468
73306;BME280;61530;51.158;0.880;2022-10-03T05:44:00;1023.73;;;10.625;45.9058
73306;BME280;61530;51.158;0.880;2022-10-03T05:45:01;1023.72;;;10.625;45.8929